Time,TemperatureF,DewpointF,PressureIn,WindDirection,WindDirectionDegrees,WindSpeedMPH,WindSpeedGustMPH,Humidity,HourlyPrecipIn,Conditions,Clouds,dailyrainin,SoftwareType,DateUTC
2013-03-25 08:00:00,4.9,-0.2,30.50,SSE,158,0.0,2.0,79,0.00,,---,0.00,VWS V14.01,2013-03-25 14:00:00,
2013-03-25 08:15:00,4.9,-0.2,30.50,SSE,158,0.0,2.0,79,0.00,,---,0.00,VWS V14.01,2013-03-25 14:15:00,
2013-03-25 08:16:00,4.5,-0.8,30.51,SSE,160,0.0,0.0,78,0.00,,---,0.00,VWS V14.01,2013-03-25 14:16:00,
2013-03-25 08:21:00,5.0,-0.3,30.52,SSE,160,0.0,0.0,78,0.00,,---,0.00,VWS V14.01,2013-03-25 14:21:00,
2013-03-25 08:26:00,5.3,-0.1,30.52,SSE,160,0.0,0.0,78,0.00,,---,0.00,VWS V14.01,2013-03-25 14:26:00,
2013-03-25 08:31:00,5.5,0.1,30.50,SSE,160,0.0,0.0,78,0.00,,---,0.00,VWS V14.01,2013-03-25 14:31:00,
2013-03-25 08:36:00,5.8,0.4,30.50,SSE,160,0.0,1.0,78,0.00,,---,0.00,VWS V14.01,2013-03-25 14:36:00,
2013-03-25 08:41:00,6.3,0.9,30.50,SSE,160,0.0,1.0,78,0.00,,---,0.00,VWS V14.01,2013-03-25 14:41:00,
2013-03-25 08:46:00,7.1,2.0,30.50,SSE,160,0.0,1.0,79,0.00,,---,0.00,VWS V14.01,2013-03-25 14:46:00,
2013-03-25 09:29:00,12.3,5.9,30.46,SSE,163,0.0,4.0,75,0.00,,---,0.00,VWS V14.01,2013-03-25 15:29:00,
2013-03-25 09:34:00,12.7,6.3,30.46,South,169,1.0,6.0,75,0.00,,---,0.00,VWS V14.01,2013-03-25 15:34:00,
2013-03-25 09:39:00,13.3,6.9,30.46,South,169,4.0,4.0,75,0.00,,---,0.00,VWS V14.01,2013-03-25 15:39:00,
2013-03-25 09:44:00,14.3,10.1,30.44,South,171,0.0,2.0,83,0.00,,---,0.00,VWS V14.01,2013-03-25 15:44:00,
2013-03-25 09:49:00,15.2,8.4,30.44,South,171,0.0,5.0,74,0.00,,---,0.00,VWS V14.01,2013-03-25 15:49:00,
2013-03-25 09:54:00,15.7,8.6,30.43,South,171,0.0,3.0,73,0.00,,---,0.00,VWS V14.01,2013-03-25 15:54:00,
2013-03-25 09:59:00,16.6,9.2,30.42,South,171,0.0,2.0,72,0.00,,---,0.00,VWS V14.01,2013-03-25 15:59:00,
2013-03-25 10:04:00,17.5,9.7,30.43,South,171,0.0,2.0,71,0.00,,---,0.00,VWS V14.01,2013-03-25 16:04:00,
2013-03-25 10:09:00,18.2,10.1,30.44,South,171,2.0,2.0,70,0.00,,---,0.00,VWS V14.01,2013-03-25 16:09:00,
2013-03-25 10:14:00,18.7,9.9,30.43,South,171,0.0,2.0,68,0.00,,---,0.00,VWS V14.01,2013-03-25 16:14:00,
2013-03-25 10:19:00,18.8,9.3,30.43,South,171,0.0,2.0,66,0.00,,---,0.00,VWS V14.01,2013-03-25 16:19:00,
2013-03-25 10:24:00,19.0,9.9,30.43,South,171,0.0,4.0,67,0.00,,---,0.00,VWS V14.01,2013-03-25 16:24:00,
2013-03-25 10:29:00,19.3,9.5,30.42,South,175,0.0,6.0,65,0.00,,---,0.00,VWS V14.01,2013-03-25 16:29:00,
2013-03-25 10:34:00,19.7,8.4,30.42,South,175,0.0,4.0,61,0.00,,---,0.00,VWS V14.01,2013-03-25 16:34:00,
2013-03-25 10:39:00,19.7,7.7,30.43,South,175,2.0,5.0,59,0.00,,---,0.00,VWS V14.01,2013-03-25 16:39:00,
2013-03-25 10:44:00,19.7,6.2,30.43,South,175,4.0,4.0,55,0.00,,---,0.00,VWS V14.01,2013-03-25 16:44:00,
2013-03-25 10:49:00,20.0,5.6,30.43,South,182,3.0,5.0,53,0.00,,---,0.00,VWS V14.01,2013-03-25 16:49:00,
2013-03-25 10:54:00,20.3,3.8,30.43,South,182,0.0,6.0,48,0.00,,---,0.00,VWS V14.01,2013-03-25 16:54:00,
2013-03-25 10:59:00,20.6,3.6,30.41,South,182,0.0,6.0,47,0.00,,---,0.00,VWS V14.01,2013-03-25 16:59:00,
2013-03-25 11:04:00,21.0,2.5,30.41,South,183,0.0,2.0,44,0.00,,---,0.00,VWS V14.01,2013-03-25 17:04:00,
2013-03-25 11:09:00,21.2,1.2,30.47,South,184,0.0,6.0,41,0.00,,---,0.00,VWS V14.01,2013-03-25 17:09:00,
2013-03-25 11:14:00,21.1,1.1,30.47,South,184,0.0,2.0,41,0.00,,---,0.00,VWS V14.01,2013-03-25 17:14:00,
2013-03-25 11:19:00,21.4,1.4,30.47,South,184,1.0,4.0,41,0.00,,---,0.00,VWS V14.01,2013-03-25 17:19:00,
2013-03-25 11:24:00,21.5,0.9,30.45,South,184,2.0,4.0,40,0.00,,---,0.00,VWS V14.01,2013-03-25 17:24:00,
2013-03-25 11:29:00,21.7,0.0,30.45,South,187,1.0,5.0,38,0.00,,---,0.00,VWS V14.01,2013-03-25 17:29:00,
2013-03-25 11:35:00,21.6,0.5,30.45,South,188,0.0,4.0,39,0.01,,---,0.01,VWS V14.01,2013-03-25 17:35:00,
2013-03-25 11:40:00,22.1,1.5,30.45,South,187,4.0,5.0,40,0.01,,---,0.01,VWS V14.01,2013-03-25 17:40:00,
2013-03-25 11:45:00,22.3,1.1,30.45,South,188,1.0,2.0,39,0.01,,---,0.01,VWS V14.01,2013-03-25 17:45:00,
2013-03-25 11:50:00,22.9,2.2,30.45,South,187,1.0,2.0,40,0.01,,---,0.01,VWS V14.01,2013-03-25 17:50:00,
2013-03-25 11:55:00,23.8,1.9,30.43,South,188,1.0,4.0,38,0.01,,---,0.01,VWS V14.01,2013-03-25 17:55:00,
2013-03-25 12:00:00,23.9,2.0,30.43,South,188,0.0,2.0,38,0.01,,---,0.01,VWS V14.01,2013-03-25 18:00:00,
2013-03-25 12:05:00,23.3,2.0,30.44,SSW,194,2.0,6.0,39,0.01,,---,0.01,VWS V14.01,2013-03-25 18:05:00,
2013-03-25 12:10:00,23.4,1.0,30.48,SSW,195,0.0,5.0,37,0.01,,---,0.01,VWS V14.01,2013-03-25 18:10:00,
2013-03-25 12:15:00,24.0,2.7,30.46,SSW,195,0.0,5.0,39,0.01,,---,0.01,VWS V14.01,2013-03-25 18:15:00,
2013-03-25 12:20:00,24.5,1.4,30.46,SSW,195,2.0,5.0,36,0.01,,---,0.01,VWS V14.01,2013-03-25 18:20:00,
2013-03-25 12:25:00,24.3,1.8,30.46,SSW,195,0.0,6.0,37,0.01,,---,0.01,VWS V14.01,2013-03-25 18:25:00,
2013-03-25 12:30:00,25.2,3.2,30.46,SSW,195,5.0,5.0,38,0.01,,---,0.01,VWS V14.01,2013-03-25 18:30:00,
2013-03-25 12:35:00,25.1,3.6,30.46,SSW,195,0.0,5.0,39,0.00,,---,0.01,VWS V14.01,2013-03-25 18:35:00,
2013-03-25 12:40:00,25.7,2.5,30.44,SSW,195,5.0,5.0,36,0.00,,---,0.01,VWS V14.01,2013-03-25 18:40:00,
2013-03-25 12:45:00,25.4,2.2,30.44,SSW,195,5.0,8.0,36,0.00,,---,0.01,VWS V14.01,2013-03-25 18:45:00,
2013-03-25 12:50:00,25.2,1.4,30.46,SSW,195,5.0,6.0,35,0.00,,---,0.01,VWS V14.01,2013-03-25 18:50:00,
2013-03-25 12:55:00,25.0,1.2,30.46,SSW,199,4.0,7.0,35,0.00,,---,0.01,VWS V14.01,2013-03-25 18:55:00,
2013-03-25 13:00:00,24.8,0.4,30.46,SSW,199,0.0,4.0,34,0.00,,---,0.01,VWS V14.01,2013-03-25 19:00:00,
2013-03-25 13:05:00,25.4,1.6,30.45,SSW,199,0.0,6.0,35,0.00,,---,0.01,VWS V14.01,2013-03-25 19:05:00,
2013-03-25 13:10:00,26.4,3.7,30.45,SSW,199,0.0,4.0,37,0.00,,---,0.01,VWS V14.01,2013-03-25 19:10:00,
2013-03-25 13:15:00,27.8,5.5,30.43,SSW,199,0.0,1.0,38,0.00,,---,0.01,VWS V14.01,2013-03-25 19:15:00,
2013-03-25 13:20:00,28.7,3.9,30.43,SSW,199,4.0,4.0,34,0.00,,---,0.01,VWS V14.01,2013-03-25 19:20:00,
2013-03-25 13:25:00,29.2,5.0,30.43,SSW,199,0.0,1.0,35,0.00,,---,0.01,VWS V14.01,2013-03-25 19:25:00,
2013-03-25 13:30:00,29.7,4.1,30.41,SSW,199,1.0,5.0,33,0.00,,---,0.01,VWS V14.01,2013-03-25 19:30:00,
2013-03-25 13:35:00,29.6,3.4,30.41,SSW,199,0.0,5.0,32,0.00,,---,0.01,VWS V14.01,2013-03-25 19:35:00,
2013-03-25 13:40:00,29.7,3.5,30.41,SSW,199,0.0,1.0,32,0.00,,---,0.01,VWS V14.01,2013-03-25 19:40:00,
2013-03-25 13:45:00,29.2,2.3,30.42,SSW,199,1.0,2.0,31,0.00,,---,0.01,VWS V14.01,2013-03-25 19:45:00,
2013-03-25 13:50:00,29.0,4.2,30.42,SSW,200,0.0,7.0,34,0.00,,---,0.01,VWS V14.01,2013-03-25 19:50:00,
2013-03-25 13:55:00,29.5,4.6,30.41,SSW,196,2.0,3.0,34,0.00,,---,0.01,VWS V14.01,2013-03-25 19:55:00,
2013-03-25 14:00:00,29.2,4.3,30.42,SSW,196,0.0,6.0,34,0.00,,---,0.01,VWS V14.01,2013-03-25 20:00:00,
2013-03-25 14:05:00,29.5,4.0,30.40,SSW,196,0.0,6.0,33,0.00,,---,0.01,VWS V14.01,2013-03-25 20:05:00,
2013-03-25 14:10:00,29.8,4.2,30.42,SSW,196,1.0,4.0,33,0.00,,---,0.01,VWS V14.01,2013-03-25 20:10:00,
2013-03-25 14:15:00,30.4,3.4,30.42,SSW,196,0.0,2.0,31,0.00,,---,0.01,VWS V14.01,2013-03-25 20:15:00,
2013-03-25 14:20:00,30.9,3.8,30.40,SSW,196,1.0,2.0,31,0.00,,---,0.01,VWS V14.01,2013-03-25 20:20:00,
2013-03-25 14:25:00,30.5,2.8,30.40,SSW,195,2.0,4.0,30,0.00,,---,0.01,VWS V14.01,2013-03-25 20:25:00,
2013-03-25 14:30:00,30.1,3.1,30.42,SSW,195,1.0,5.0,31,0.00,,---,0.01,VWS V14.01,2013-03-25 20:30:00,
2013-03-25 14:35:00,30.2,4.6,30.42,South,191,0.0,4.0,33,0.00,,---,0.01,VWS V14.01,2013-03-25 20:35:00,
2013-03-25 14:40:00,30.8,3.0,30.40,South,190,0.0,4.0,30,0.00,,---,0.01,VWS V14.01,2013-03-25 20:40:00,
2013-03-25 14:45:00,30.9,3.8,30.40,South,190,0.0,4.0,31,0.00,,---,0.01,VWS V14.01,2013-03-25 20:45:00,
2013-03-25 14:50:00,30.8,3.0,30.40,South,187,0.0,4.0,30,0.00,,---,0.01,VWS V14.01,2013-03-25 20:50:00,
2013-03-25 14:55:00,30.9,3.8,30.39,South,187,1.0,3.0,31,0.00,,---,0.01,VWS V14.01,2013-03-25 20:55:00,
2013-03-25 15:00:00,31.2,4.1,30.39,South,187,0.0,4.0,31,0.00,,---,0.01,VWS V14.01,2013-03-25 21:00:00,
2013-03-25 15:05:00,31.5,4.4,30.39,South,188,4.0,7.0,31,0.00,,---,0.01,VWS V14.01,2013-03-25 21:05:00,
2013-03-25 15:10:00,32.4,5.8,30.39,South,187,0.0,2.0,32,0.00,,---,0.01,VWS V14.01,2013-03-25 21:10:00,
2013-03-25 15:15:00,32.6,5.3,30.39,South,188,5.0,5.0,31,0.00,,---,0.01,VWS V14.01,2013-03-25 21:15:00,
2013-03-25 15:20:00,32.3,7.1,30.39,South,188,0.0,4.0,34,0.00,,---,0.01,VWS V14.01,2013-03-25 21:20:00,
2013-03-25 15:25:00,33.0,5.7,30.39,South,188,2.0,2.0,31,0.00,,---,0.01,VWS V14.01,2013-03-25 21:25:00,
2013-03-25 15:30:00,32.8,4.8,30.39,South,187,4.0,4.0,30,0.00,,---,0.01,VWS V14.01,2013-03-25 21:30:00,
2013-03-25 15:35:00,32.3,5.1,30.39,South,187,0.0,1.0,31,0.00,,---,0.01,VWS V14.01,2013-03-25 21:35:00,
2013-03-25 15:40:00,32.9,5.6,30.38,South,187,5.0,5.0,31,0.00,,---,0.01,VWS V14.01,2013-03-25 21:40:00,
2013-03-25 15:45:00,32.7,6.8,30.38,South,190,1.0,7.0,33,0.00,,---,0.01,VWS V14.01,2013-03-25 21:45:00,
2013-03-25 15:50:00,32.3,5.8,30.38,SSW,194,4.0,9.0,32,0.00,,---,0.01,VWS V14.01,2013-03-25 21:50:00,
2013-03-25 15:55:00,32.1,6.2,30.38,SSW,194,3.0,6.0,33,0.00,,---,0.01,VWS V14.01,2013-03-25 21:55:00,
2013-03-25 16:00:00,31.9,5.4,30.38,SSW,205,4.0,9.0,32,0.00,,---,0.01,VWS V14.01,2013-03-25 22:00:00,
2013-03-25 16:05:00,31.6,5.1,30.38,SSW,205,1.0,8.0,32,0.00,,---,0.01,VWS V14.01,2013-03-25 22:05:00,
2013-03-25 16:10:00,32.2,5.0,30.36,SSW,205,2.0,8.0,31,0.00,,---,0.01,VWS V14.01,2013-03-25 22:10:00,
2013-03-25 16:15:00,31.9,4.7,30.36,SSW,208,6.0,8.0,31,0.00,,---,0.01,VWS V14.01,2013-03-25 22:15:00,
2013-03-25 16:20:00,31.7,4.5,30.36,SSW,213,7.0,9.0,31,0.00,,---,0.01,VWS V14.01,2013-03-25 22:20:00,
2013-03-25 16:25:00,31.7,5.2,30.36,SW,217,8.0,9.0,32,0.00,,---,0.01,VWS V14.01,2013-03-25 22:25:00,
2013-03-25 16:30:00,31.7,5.2,30.36,SW,221,1.0,7.0,32,0.00,,---,0.01,VWS V14.01,2013-03-25 22:30:00,
2013-03-25 16:35:00,32.1,5.6,30.36,SW,221,5.0,7.0,32,0.00,,---,0.01,VWS V14.01,2013-03-25 22:35:00,
2013-03-25 16:40:00,32.5,5.2,30.36,SW,221,4.0,7.0,31,0.00,,---,0.01,VWS V14.01,2013-03-25 22:40:00,
2013-03-25 16:45:00,32.6,5.3,30.36,SW,221,6.0,7.0,31,0.00,,---,0.01,VWS V14.01,2013-03-25 22:45:00,
2013-03-25 16:50:00,32.4,4.4,30.36,SW,221,1.0,7.0,30,0.00,,---,0.01,VWS V14.01,2013-03-25 22:50:00,
2013-03-25 16:55:00,32.6,5.3,30.36,SW,221,4.0,7.0,31,0.00,,---,0.01,VWS V14.01,2013-03-25 22:55:00,
2013-03-25 17:00:00,32.8,4.8,30.36,SW,221,1.0,6.0,30,0.00,,---,0.01,VWS V14.01,2013-03-25 23:00:00,
2013-03-25 17:05:00,33.3,5.2,30.36,SW,221,2.0,6.0,30,0.00,,---,0.01,VWS V14.01,2013-03-25 23:05:00,
2013-03-25 17:10:00,33.4,6.0,30.36,SW,221,7.0,7.0,31,0.00,,---,0.01,VWS V14.01,2013-03-25 23:10:00,
2013-03-25 17:15:00,33.6,5.5,30.36,SW,221,3.0,7.0,30,0.00,,---,0.01,VWS V14.01,2013-03-25 23:15:00,
2013-03-25 17:20:00,33.4,5.3,30.36,SW,221,5.0,7.0,30,0.00,,---,0.01,VWS V14.01,2013-03-25 23:20:00,
2013-03-25 17:25:00,33.9,6.5,30.36,SW,221,0.0,4.0,31,0.00,,---,0.01,VWS V14.01,2013-03-25 23:25:00,
2013-03-25 17:30:00,34.4,5.4,30.36,SW,221,0.0,3.0,29,0.00,,---,0.01,VWS V14.01,2013-03-25 23:30:00,
2013-03-25 17:36:00,34.4,5.4,30.36,SW,221,0.0,5.0,29,0.00,,---,0.01,VWS V14.01,2013-03-25 23:36:00,
2013-03-25 17:41:00,34.4,6.2,30.36,SW,221,1.0,5.0,30,0.00,,---,0.01,VWS V14.01,2013-03-25 23:41:00,
2013-03-25 17:46:00,33.9,6.5,30.36,SW,221,3.0,7.0,31,0.00,,---,0.01,VWS V14.01,2013-03-25 23:46:00,
2013-03-25 17:51:00,33.7,7.7,30.36,SW,221,2.0,7.0,33,0.00,,---,0.01,VWS V14.01,2013-03-25 23:51:00,
2013-03-25 17:56:00,33.3,12.7,30.36,SW,220,4.0,9.0,42,0.00,,---,0.01,VWS V14.01,2013-03-25 23:56:00,
2013-03-25 18:01:00,32.7,14.2,30.36,SSW,207,1.0,12.0,46,0.00,,---,0.01,VWS V14.01,2013-03-26 00:01:00,
2013-03-25 18:06:00,32.5,14.5,30.36,SSW,207,2.0,10.0,47,0.00,,---,0.01,VWS V14.01,2013-03-26 00:06:00,
2013-03-25 18:11:00,32.2,14.2,30.41,SSW,205,1.0,9.0,47,0.00,,---,0.01,VWS V14.01,2013-03-26 00:11:00,
2013-03-25 18:16:00,32.2,14.7,30.40,SSW,205,1.0,7.0,48,0.00,,---,0.01,VWS V14.01,2013-03-26 00:16:00,
2013-03-25 18:21:00,31.9,14.4,30.41,SSW,195,8.0,11.0,48,0.00,,---,0.01,VWS V14.01,2013-03-26 00:21:00,
2013-03-25 18:26:00,31.2,14.3,30.42,SSW,194,7.0,10.0,49,0.00,,---,0.01,VWS V14.01,2013-03-26 00:26:00,
2013-03-25 18:31:00,30.6,14.2,30.43,SSW,193,3.0,11.0,50,0.00,,---,0.01,VWS V14.01,2013-03-26 00:31:00,
2013-03-25 18:36:00,30.5,15.0,30.43,SSW,192,3.0,7.0,52,0.00,,---,0.01,VWS V14.01,2013-03-26 00:36:00,
2013-03-25 18:41:00,30.2,14.3,30.43,SSW,193,6.0,10.0,51,0.00,,---,0.01,VWS V14.01,2013-03-26 00:41:00,
2013-03-25 18:46:00,29.7,14.2,30.43,SSW,193,5.0,10.0,52,0.00,,---,0.01,VWS V14.01,2013-03-26 00:46:00,
2013-03-25 18:51:00,29.2,14.2,30.45,SSW,194,5.0,10.0,53,0.00,,---,0.01,VWS V14.01,2013-03-26 00:51:00,
2013-03-25 18:56:00,28.6,14.1,30.45,South,190,4.0,13.0,54,0.00,,---,0.01,VWS V14.01,2013-03-26 00:56:00,
2013-03-25 19:01:00,28.1,14.0,30.45,South,190,3.0,10.0,55,0.00,,---,0.01,VWS V14.01,2013-03-26 01:01:00,
2013-03-25 19:06:00,27.5,14.3,30.45,South,191,3.0,9.0,57,0.00,,---,0.01,VWS V14.01,2013-03-26 01:06:00,
2013-03-25 19:11:00,27.1,14.3,30.40,SSW,192,8.0,10.0,58,0.00,,---,0.01,VWS V14.01,2013-03-26 01:11:00,
2013-03-25 19:16:00,26.6,14.2,30.40,South,191,4.0,11.0,59,0.00,,---,0.01,VWS V14.01,2013-03-26 01:16:00,
2013-03-25 19:21:00,26.1,14.5,30.42,South,190,6.0,11.0,61,0.00,,---,0.01,VWS V14.01,2013-03-26 01:21:00,
2013-03-25 19:26:00,25.6,14.4,30.42,South,188,5.0,12.0,62,0.00,,---,0.01,VWS V14.01,2013-03-26 01:26:00,
2013-03-25 19:31:00,25.1,14.3,30.42,South,188,5.0,10.0,63,0.00,,---,0.01,VWS V14.01,2013-03-26 01:31:00,
2013-03-25 19:36:00,24.8,14.4,30.42,South,188,5.0,10.0,64,0.00,,---,0.01,VWS V14.01,2013-03-26 01:36:00,
2013-03-25 19:41:00,24.5,14.4,30.43,South,189,2.0,8.0,65,0.00,,---,0.01,VWS V14.01,2013-03-26 01:41:00,
2013-03-25 19:46:00,24.2,14.5,30.45,South,190,8.0,10.0,66,0.00,,---,0.01,VWS V14.01,2013-03-26 01:46:00,
2013-03-25 19:51:00,24.0,14.3,30.45,South,190,5.0,7.0,66,0.00,,---,0.01,VWS V14.01,2013-03-26 01:51:00,
2013-03-25 19:56:00,23.8,14.5,30.45,South,190,1.0,6.0,67,0.00,,---,0.01,VWS V14.01,2013-03-26 01:56:00,
2013-03-25 20:01:00,23.6,14.6,30.45,South,190,8.0,8.0,68,0.00,,---,0.01,VWS V14.01,2013-03-26 02:01:00,
2013-03-25 20:06:00,23.6,14.6,30.46,South,191,8.0,9.0,68,0.00,,---,0.01,VWS V14.01,2013-03-26 02:06:00,
2013-03-25 20:11:00,23.6,14.6,30.42,South,191,6.0,7.0,68,0.00,,---,0.01,VWS V14.01,2013-03-26 02:11:00,
2013-03-25 20:16:00,23.6,14.9,30.43,South,190,0.0,5.0,69,0.00,,---,0.01,VWS V14.01,2013-03-26 02:16:00,
2013-03-25 20:21:00,23.4,14.8,30.43,South,190,0.0,2.0,69,0.00,,---,0.01,VWS V14.01,2013-03-26 02:21:00,
2013-03-25 20:26:00,23.3,14.6,30.44,South,190,0.0,1.0,69,0.00,,---,0.01,VWS V14.01,2013-03-26 02:26:00,
2013-03-25 20:31:00,23.1,14.5,30.44,South,190,0.0,2.0,69,0.00,,---,0.01,VWS V14.01,2013-03-26 02:31:00,
2013-03-25 20:37:00,22.9,14.6,30.44,South,190,0.0,2.0,70,0.00,,---,0.01,VWS V14.01,2013-03-26 02:37:00,
2013-03-25 20:42:00,22.8,14.5,30.44,South,190,0.0,1.0,70,0.00,,---,0.01,VWS V14.01,2013-03-26 02:42:00,
2013-03-25 20:47:00,22.8,14.5,30.44,South,190,0.0,0.0,70,0.00,,---,0.01,VWS V14.01,2013-03-26 02:47:00,
2013-03-25 20:52:00,22.6,14.6,30.44,South,190,0.0,1.0,71,0.00,,---,0.01,VWS V14.01,2013-03-26 02:52:00,
2013-03-25 20:57:00,22.5,14.2,30.44,South,190,0.0,2.0,70,0.00,,---,0.01,VWS V14.01,2013-03-26 02:57:00,
2013-03-25 21:02:00,22.5,14.5,30.45,South,190,0.0,2.0,71,0.00,,---,0.01,VWS V14.01,2013-03-26 03:02:00,
2013-03-25 21:07:00,22.3,14.3,30.47,South,190,0.0,0.0,71,0.00,,---,0.01,VWS V14.01,2013-03-26 03:07:00,
2013-03-25 21:12:00,22.1,14.1,30.37,South,190,0.0,1.0,71,0.00,,---,0.01,VWS V14.01,2013-03-26 03:12:00,
2013-03-25 21:17:00,22.0,14.1,30.37,South,190,0.0,0.0,71,0.00,,---,0.01,VWS V14.01,2013-03-26 03:17:00,
2013-03-25 21:22:00,21.8,13.9,30.37,South,190,1.0,1.0,71,0.00,,---,0.01,VWS V14.01,2013-03-26 03:22:00,
2013-03-25 21:27:00,21.7,13.8,30.38,South,190,0.0,0.0,71,0.00,,---,0.01,VWS V14.01,2013-03-26 03:27:00,
2013-03-25 21:32:00,21.5,13.6,30.38,South,190,0.0,0.0,71,0.00,,---,0.01,VWS V14.01,2013-03-26 03:32:00,
2013-03-25 21:37:00,21.4,13.5,30.40,South,190,0.0,0.0,71,0.00,,---,0.01,VWS V14.01,2013-03-26 03:37:00,
2013-03-25 21:42:00,21.2,13.3,30.40,South,190,0.0,0.0,71,0.00,,---,0.01,VWS V14.01,2013-03-26 03:42:00,
2013-03-25 21:47:00,21.1,13.5,30.40,South,190,0.0,0.0,72,0.00,,---,0.01,VWS V14.01,2013-03-26 03:47:00,
2013-03-25 21:52:00,21.0,13.4,30.40,South,190,0.0,0.0,72,0.00,,---,0.01,VWS V14.01,2013-03-26 03:52:00,
2013-03-25 21:57:00,20.9,13.3,30.40,South,190,0.0,0.0,72,0.00,,---,0.01,VWS V14.01,2013-03-26 03:57:00,
2013-03-25 22:00:00,20.8,13.2,30.41,South,190,0.0,2.0,72,0.00,,---,0.01,VWS V14.01,2013-03-26 04:00:00,
2013-03-25 22:02:00,20.8,13.5,30.41,South,190,0.0,2.0,73,0.00,,---,0.01,VWS V14.01,2013-03-26 04:02:00,
2013-03-25 22:07:00,20.8,13.5,30.41,South,190,0.0,0.0,73,0.00,,---,0.01,VWS V14.01,2013-03-26 04:07:00,
2013-03-25 22:12:00,20.7,13.4,30.37,South,190,0.0,0.0,73,0.00,,---,0.01,VWS V14.01,2013-03-26 04:12:00,
2013-03-25 22:17:00,20.4,12.8,30.39,South,190,0.0,0.0,72,0.00,,---,0.01,VWS V14.01,2013-03-26 04:17:00,
2013-03-25 22:22:00,20.3,12.7,30.39,South,190,0.0,0.0,72,0.00,,---,0.01,VWS V14.01,2013-03-26 04:22:00,
2013-03-25 22:27:00,20.0,12.4,30.40,South,190,1.0,1.0,72,0.00,,---,0.01,VWS V14.01,2013-03-26 04:27:00,
2013-03-25 22:32:00,19.7,11.5,30.40,South,190,2.0,2.0,70,0.00,,---,0.01,VWS V14.01,2013-03-26 04:32:00,
2013-03-25 22:37:00,19.7,11.5,30.40,South,190,0.0,0.0,70,0.00,,---,0.01,VWS V14.01,2013-03-26 04:37:00,
2013-03-25 22:42:00,19.4,11.2,30.40,South,190,0.0,0.0,70,0.00,,---,0.01,VWS V14.01,2013-03-26 04:42:00,
2013-03-25 22:47:00,19.3,11.1,30.40,South,190,0.0,0.0,70,0.00,,---,0.01,VWS V14.01,2013-03-26 04:47:00,
2013-03-25 22:52:00,19.3,11.1,30.40,South,190,0.0,0.0,70,0.00,,---,0.01,VWS V14.01,2013-03-26 04:52:00,
2013-03-25 22:57:00,19.2,11.0,30.39,South,190,0.0,0.0,70,0.00,,---,0.01,VWS V14.01,2013-03-26 04:57:00,
2013-03-25 23:02:00,19.0,11.2,30.39,South,190,0.0,0.0,71,0.00,,---,0.01,VWS V14.01,2013-03-26 05:02:00,
2013-03-25 23:07:00,18.8,11.0,30.37,South,190,0.0,0.0,71,0.00,,---,0.01,VWS V14.01,2013-03-26 05:07:00,
2013-03-25 23:12:00,18.6,10.8,30.37,South,190,0.0,0.0,71,0.00,,---,0.01,VWS V14.01,2013-03-26 05:12:00,
2013-03-25 23:17:00,18.5,11.0,30.37,South,190,0.0,0.0,72,0.00,,---,0.01,VWS V14.01,2013-03-26 05:17:00,
2013-03-25 23:22:00,18.3,10.8,30.39,South,190,0.0,0.0,72,0.00,,---,0.01,VWS V14.01,2013-03-26 05:22:00,
2013-03-25 23:27:00,18.0,10.5,30.39,South,190,0.0,0.0,72,0.00,,---,0.01,VWS V14.01,2013-03-26 05:27:00,
2013-03-25 23:32:00,17.7,10.5,30.39,South,190,0.0,0.0,73,0.00,,---,0.01,VWS V14.01,2013-03-26 05:32:00,
2013-03-25 23:37:00,17.5,10.3,30.39,South,190,0.0,0.0,73,0.00,,---,0.01,VWS V14.01,2013-03-26 05:37:00,
2013-03-25 23:42:00,17.2,10.4,30.39,South,190,0.0,0.0,74,0.00,,---,0.01,VWS V14.01,2013-03-26 05:42:00,
2013-03-25 23:47:00,16.7,9.9,30.39,South,190,0.0,0.0,74,0.00,,---,0.01,VWS V14.01,2013-03-26 05:47:00,
2013-03-25 23:52:00,16.3,9.5,30.41,South,190,0.0,0.0,74,0.00,,---,0.01,VWS V14.01,2013-03-26 05:52:00,
2013-03-25 23:57:00,15.9,9.4,30.40,South,190,0.0,0.0,75,0.00,,---,0.01,VWS V14.01,2013-03-26 05:57:00,